createdAt,value
2019-02-08T00:01:40.919Z,101135.81
2019-02-08T00:04:10.713Z,101140.31
2019-02-08T00:06:40.178Z,101128.98
2019-02-08T00:09:11.004Z,101141.80
2019-02-08T00:11:40.072Z,101134.16
2019-02-08T00:14:09.593Z,101130.30
2019-02-08T00:16:39.325Z,101118.40
2019-02-08T00:19:08.843Z,101116.22
2019-02-08T00:21:38.282Z,101119.58
2019-02-08T00:24:07.947Z,101117.92
2019-02-08T00:26:37.913Z,101116.59
2019-02-08T00:29:07.338Z,101117.34
2019-02-08T00:31:36.608Z,101119.17
2019-02-08T00:34:06.519Z,101120.91
2019-02-08T00:36:35.575Z,101117.98
2019-02-08T00:39:09.719Z,101104.45
2019-02-08T00:41:38.836Z,101123.52
2019-02-08T00:44:08.501Z,101122.82
2019-02-08T00:46:38.331Z,101118.95
2019-02-08T00:49:07.559Z,101114.25
2019-02-08T00:51:37.415Z,101114.73
2019-02-08T00:54:07.313Z,101117.34
2019-02-08T00:56:36.703Z,101112.45
2019-02-08T00:59:06.564Z,101104.45
2019-02-08T01:01:36.327Z,101098.84
2019-02-08T01:04:06.059Z,101102.19
2019-02-08T01:06:35.442Z,101083.72
2019-02-08T01:09:07.932Z,101084.11
2019-02-08T01:11:38.241Z,101088.05
2019-02-08T01:14:10.199Z,101082.17
2019-02-08T01:16:40.327Z,101084.84
2019-02-08T01:19:09.991Z,101081.66
2019-02-08T01:21:39.207Z,101081.75
2019-02-08T01:24:08.862Z,101075.65
2019-02-08T01:26:38.387Z,101088.20
2019-02-08T01:29:07.846Z,101082.58
2019-02-08T01:31:37.362Z,101089.59
2019-02-08T01:34:06.870Z,101086.22
2019-02-08T01:36:36.349Z,101086.39
2019-02-08T01:39:07.859Z,101077.31
2019-02-08T01:41:37.047Z,101084.84
2019-02-08T01:44:07.192Z,101082.70
2019-02-08T01:46:36.226Z,101081.31
2019-02-08T01:49:05.524Z,101076.96
2019-02-08T01:51:34.881Z,101085.36
2019-02-08T01:54:04.143Z,101075.30
2019-02-08T01:56:33.489Z,101075.17
2019-02-08T01:59:03.341Z,101081.92
2019-02-08T02:01:32.799Z,101074.90
2019-02-08T02:04:03.236Z,101082.28
2019-02-08T02:06:32.686Z,101074.44
2019-02-08T02:09:02.181Z,101081.28
2019-02-08T02:11:31.307Z,101076.92
2019-02-08T02:14:00.825Z,101075.82
2019-02-08T02:16:30.159Z,101071.49
2019-02-08T02:18:59.790Z,101068.42
2019-02-08T02:21:29.056Z,101072.01
2019-02-08T02:23:58.495Z,101070.17
2019-02-08T02:26:27.939Z,101071.59
2019-02-08T02:28:57.033Z,101068.01
2019-02-08T02:31:26.347Z,101069.89
2019-02-08T02:33:55.946Z,101062.86
2019-02-08T02:36:26.053Z,101067.81
2019-02-08T02:38:55.375Z,101065.11
2019-02-08T02:41:24.879Z,101063.69
2019-02-08T02:43:54.513Z,101060.24
2019-02-08T02:46:24.974Z,101062.17
2019-02-08T02:48:54.304Z,101073.70
2019-02-08T02:51:23.707Z,101062.68
2019-02-08T02:53:53.151Z,101067.42
2019-02-08T02:56:22.447Z,101056.52
2019-02-08T02:58:51.518Z,101057.53
2019-02-08T03:01:20.581Z,101060.15
2019-02-08T03:03:50.063Z,101056.94
2019-02-08T03:06:19.085Z,101061.40
2019-02-08T03:08:48.250Z,101055.28
2019-02-08T03:11:17.734Z,101060.76
2019-02-08T03:13:46.735Z,101053.08
2019-02-08T03:16:15.951Z,101053.13
2019-02-08T03:18:44.970Z,101054.64
2019-02-08T03:21:14.425Z,101055.27
2019-02-08T03:23:43.752Z,101042.33
2019-02-08T03:26:13.350Z,101043.44
2019-02-08T03:28:42.434Z,101047.92
2019-02-08T03:31:12.154Z,101044.61
2019-02-08T03:33:45.487Z,101033.59
2019-02-08T03:36:15.047Z,101032.08
2019-02-08T03:38:44.854Z,101034.23
2019-02-08T03:41:14.517Z,101028.66
2019-02-08T03:43:43.791Z,101023.02
2019-02-08T03:46:12.809Z,101019.80
2019-02-08T03:48:42.328Z,101017.95
2019-02-08T03:51:11.428Z,101017.95
2019-02-08T03:53:41.172Z,101011.05
2019-02-08T03:56:10.205Z,101014.16
2019-02-08T03:58:39.186Z,101006.77
2019-02-08T04:01:09.199Z,101011.33
2019-02-08T04:03:39.346Z,100999.94
2019-02-08T04:06:08.533Z,100997.72
2019-02-08T04:08:38.023Z,100998.12
2019-02-08T04:11:07.924Z,100991.23
2019-02-08T04:13:37.948Z,100989.64
2019-02-08T04:16:08.273Z,100991.45
2019-02-08T04:18:38.403Z,100990.59
2019-02-08T04:21:07.907Z,100991.84
2019-02-08T04:23:37.566Z,100989.82
2019-02-08T04:26:07.337Z,100990.94
2019-02-08T04:28:37.399Z,100988.63
2019-02-08T04:31:06.391Z,100990.06
2019-02-08T04:33:35.465Z,100992.08
2019-02-08T04:36:04.504Z,101001.72
2019-02-08T04:38:34.271Z,101000.09
2019-02-08T04:41:03.597Z,100998.77
2019-02-08T04:43:33.392Z,100995.09
2019-02-08T04:46:02.442Z,100985.76
2019-02-08T04:48:32.544Z,100988.11
2019-02-08T04:51:01.919Z,100985.03
2019-02-08T04:53:31.464Z,100983.22
2019-02-08T04:56:00.466Z,100970.05
2019-02-08T04:58:35.300Z,100981.34
2019-02-08T05:01:00.326Z,100978.98
2019-02-08T05:03:29.413Z,100972.56
2019-02-08T05:05:58.455Z,100969.04
2019-02-08T05:08:28.124Z,100961.17
2019-02-08T05:10:57.218Z,100968.88
2019-02-08T05:13:26.575Z,100960.93
2019-02-08T05:15:57.503Z,100959.59
2019-02-08T05:18:27.002Z,100960.87
2019-02-08T05:20:56.889Z,100962.50
2019-02-08T05:23:25.971Z,100956.28
2019-02-08T05:25:55.710Z,100963.49
2019-02-08T05:28:24.766Z,100951.39
2019-02-08T05:30:54.276Z,100946.92
2019-02-08T05:33:23.640Z,100949.23
2019-02-08T05:35:52.658Z,100940.98
2019-02-08T05:38:22.653Z,100947.36
2019-02-08T05:40:52.699Z,100950.42
2019-02-08T05:43:21.890Z,100951.20
2019-02-08T05:45:51.582Z,100953.48
2019-02-08T05:48:20.811Z,100951.71
2019-02-08T05:50:50.130Z,100952.55
2019-02-08T05:53:19.541Z,100936.84
2019-02-08T05:55:50.505Z,100945.05
2019-02-08T05:58:19.696Z,100933.48
2019-02-08T06:00:58.503Z,100932.88
2019-02-08T06:03:28.008Z,100924.55
2019-02-08T06:05:57.074Z,100926.67
2019-02-08T06:08:26.150Z,100926.03
2019-02-08T06:10:55.750Z,100916.05
2019-02-08T06:13:25.320Z,100911.41
2019-02-08T06:15:56.217Z,100922.86
2019-02-08T06:18:25.896Z,100909.20
2019-02-08T06:20:55.266Z,100911.47
2019-02-08T06:23:24.700Z,100898.43
2019-02-08T06:25:54.040Z,100908.13
2019-02-08T06:28:23.195Z,100899.38
2019-02-08T06:30:52.504Z,100892.02
2019-02-08T06:33:23.088Z,100891.41
2019-02-08T06:35:52.175Z,100900.30
2019-02-08T06:38:21.210Z,100892.34
2019-02-08T06:40:50.687Z,100895.55
2019-02-08T06:43:20.218Z,100895.23
2019-02-08T06:45:49.609Z,100895.77
2019-02-08T06:48:18.714Z,100884.85
2019-02-08T06:50:48.059Z,100891.55
2019-02-08T06:53:17.820Z,100899.11
2019-02-08T06:55:47.255Z,100885.67
2019-02-08T06:58:33.456Z,100882.73
2019-02-08T07:01:27.534Z,100881.02
2019-02-08T07:04:31.693Z,100877.23
2019-02-08T07:07:32.458Z,100879.90
2019-02-08T07:10:38.952Z,100886.53
2019-02-08T07:13:26.952Z,100889.51
2019-02-08T07:16:27.145Z,100879.81
2019-02-08T07:19:18.002Z,100883.55
2019-02-08T07:22:10.066Z,100886.22
2019-02-08T07:24:51.226Z,100887.08
2019-02-08T07:27:42.281Z,100871.52
2019-02-08T07:30:18.804Z,100877.13
2019-02-08T07:32:59.858Z,100883.80
2019-02-08T07:35:46.800Z,100872.14
2019-02-08T07:38:24.370Z,100878.58
2019-02-08T07:41:09.216Z,100869.42
2019-02-08T07:43:53.059Z,100872.97
2019-02-08T07:46:36.848Z,100866.48
2019-02-08T07:49:37.888Z,100862.06
2019-02-08T07:52:24.370Z,100857.81
2019-02-08T07:55:26.184Z,100857.37
2019-02-08T07:58:26.799Z,100858.94
2019-02-08T08:01:27.876Z,100853.23
2019-02-08T08:04:22.515Z,100856.03
2019-02-08T08:07:00.830Z,100846.94
2019-02-08T08:09:51.854Z,100842.41
2019-02-08T08:12:45.783Z,100836.77
2019-02-08T08:15:27.778Z,100834.10
2019-02-08T08:18:21.233Z,100837.75
2019-02-08T08:21:10.670Z,100829.83
2019-02-08T08:23:48.375Z,100832.83
2019-02-08T08:26:32.662Z,100832.15
2019-02-08T08:29:10.089Z,100843.18
2019-02-08T08:31:48.514Z,100826.58
2019-02-08T08:34:30.148Z,100828.12
2019-02-08T08:37:25.738Z,100824.14
2019-02-08T08:40:27.999Z,100823.31
2019-02-08T08:43:17.968Z,100807.08
2019-02-08T08:46:33.324Z,100820.81
2019-02-08T08:49:42.951Z,100813.17
2019-02-08T08:52:43.573Z,100811.80
2019-02-08T08:55:42.469Z,100811.84
2019-02-08T08:59:03.540Z,100798.48
2019-02-08T09:02:28.278Z,100792.33
2019-02-08T09:05:30.651Z,100796.09
2019-02-08T09:08:30.539Z,100779.44
2019-02-08T09:11:35.605Z,100782.32
2019-02-08T09:14:39.416Z,100772.52
2019-02-08T09:17:31.828Z,100767.39
2019-02-08T09:20:54.094Z,100757.91
2019-02-08T09:24:01.877Z,100756.79
2019-02-08T09:27:27.180Z,100761.30
2019-02-08T09:30:30.260Z,100757.45
2019-02-08T09:33:35.170Z,100756.27
2019-02-08T09:36:57.656Z,100752.31
2019-02-08T09:40:03.305Z,100748.98
2019-02-08T09:43:21.598Z,100749.33
2019-02-08T09:46:27.668Z,100784.06
2019-02-08T09:49:46.217Z,100749.34
2019-02-08T09:52:49.532Z,100752.98
2019-02-08T09:56:01.808Z,100737.67
2019-02-08T09:59:17.734Z,100724.27
2019-02-08T10:02:26.316Z,100719.63
2019-02-08T10:05:22.740Z,100727.05
2019-02-08T10:08:39.309Z,100741.71
2019-02-08T10:12:10.754Z,100734.71
2019-02-08T10:15:06.504Z,100719.84
2019-02-08T10:18:11.712Z,100712.18
2019-02-08T10:21:28.098Z,100728.91
2019-02-08T10:24:46.582Z,100724.87
2019-02-08T10:28:02.699Z,100716.69
2019-02-08T10:31:28.224Z,100719.55
2019-02-08T10:34:50.325Z,100720.38
2019-02-08T10:37:59.034Z,100704.84
2019-02-08T10:41:16.949Z,100714.72
2019-02-08T10:44:12.640Z,100722.88
2019-02-08T10:47:18.048Z,100703.69
2019-02-08T10:50:37.240Z,100714.38
2019-02-08T10:54:02.513Z,100702.01
2019-02-08T10:57:08.926Z,100691.13
2019-02-08T11:00:23.822Z,100692.97
2019-02-08T11:03:32.263Z,100680.26
2019-02-08T11:06:44.266Z,100694.30
2019-02-08T11:09:41.424Z,100699.66
2019-02-08T11:12:47.569Z,100668.23
2019-02-08T11:16:03.951Z,100670.55
2019-02-08T11:19:09.864Z,100645.82
2019-02-08T11:21:38.868Z,100662.53
2019-02-08T11:24:10.658Z,100661.02
2019-02-08T11:26:39.688Z,100654.86
2019-02-08T11:29:08.735Z,100688.28
2019-02-08T11:31:38.110Z,100673.56
2019-02-08T11:34:07.584Z,100664.20
2019-02-08T11:36:37.601Z,100650.49
2019-02-08T11:39:12.294Z,100639.46
2019-02-08T11:41:41.448Z,100638.44
2019-02-08T11:44:10.655Z,100636.79
2019-02-08T11:46:39.796Z,100636.44
2019-02-08T11:49:09.062Z,100618.73
2019-02-08T11:51:38.393Z,100610.02
2019-02-08T11:54:08.038Z,100608.84
2019-02-08T11:56:37.734Z,100601.47
2019-02-08T11:59:07.400Z,100590.61
2019-02-08T12:01:50.570Z,100589.92
2019-02-08T12:04:19.712Z,100570.86
2019-02-08T12:06:49.564Z,100584.17
2019-02-08T12:09:19.141Z,100573.83
2019-02-08T12:11:48.586Z,100570.42
2019-02-08T12:14:18.481Z,100553.73
2019-02-08T12:16:47.738Z,100554.33
2019-02-08T12:19:17.360Z,100552.33
2019-02-08T12:21:46.717Z,100542.83
2019-02-08T12:24:16.248Z,100545.47
2019-02-08T12:26:45.628Z,100548.55
2019-02-08T12:29:15.240Z,100534.02
2019-02-08T12:31:45.562Z,100529.98
2019-02-08T12:34:15.186Z,100533.34
2019-02-08T12:36:45.758Z,100529.47
2019-02-08T12:39:15.143Z,100515.19
2019-02-08T12:41:44.763Z,100536.92
2019-02-08T12:44:14.116Z,100532.25
2019-02-08T12:46:43.450Z,100524.91
2019-02-08T12:49:12.569Z,100513.09
2019-02-08T12:51:42.142Z,100503.14
2019-02-08T12:54:12.519Z,100518.48
2019-02-08T12:56:45.638Z,100514.78
2019-02-08T12:59:13.238Z,100503.83
2019-02-08T13:01:44.331Z,100486.70
2019-02-08T13:04:13.515Z,100487.22
2019-02-08T13:06:43.135Z,100465.52
2019-02-08T13:09:14.050Z,100478.02
2019-02-08T13:11:43.726Z,100491.06
2019-02-08T13:14:15.651Z,100474.03
2019-02-08T13:16:45.346Z,100444.55
2019-02-08T13:19:14.936Z,100439.97
2019-02-08T13:21:44.264Z,100433.45
2019-02-08T13:24:14.991Z,100438.20
2019-02-08T13:26:44.145Z,100442.86
2019-02-08T13:29:13.416Z,100432.20
2019-02-08T13:31:42.773Z,100431.72
2019-02-08T13:34:12.498Z,100426.06
2019-02-08T13:36:41.919Z,100408.48
2019-02-08T13:39:11.768Z,100411.89
2019-02-08T13:41:41.414Z,100411.98
2019-02-08T13:44:10.444Z,100425.02
2019-02-08T13:46:39.778Z,100400.67
2019-02-08T13:49:08.915Z,100399.49
2019-02-08T13:51:38.336Z,100407.91
2019-02-08T13:54:07.682Z,100418.94
2019-02-08T13:56:37.101Z,100411.94
2019-02-08T13:59:06.177Z,100406.10
2019-02-08T14:01:35.665Z,100389.48
2019-02-08T14:04:05.115Z,100386.73
2019-02-08T14:06:34.346Z,100385.25
2019-02-08T14:09:04.545Z,100411.30
2019-02-08T14:11:34.402Z,100425.67
2019-02-08T14:14:04.863Z,100398.59
2019-02-08T14:16:33.972Z,100400.63
2019-02-08T14:19:03.951Z,100382.87
2019-02-08T14:21:33.255Z,100379.20
2019-02-08T14:24:02.642Z,100379.80
2019-02-08T14:26:32.048Z,100395.31
2019-02-08T14:29:01.183Z,100374.53
2019-02-08T14:31:30.567Z,100367.50
2019-02-08T14:33:59.634Z,100400.28
2019-02-08T14:36:28.964Z,100365.77
2019-02-08T14:38:58.146Z,100379.59
2019-02-08T14:41:27.580Z,100372.80
2019-02-08T14:43:56.634Z,100354.05
2019-02-08T14:46:26.010Z,100354.05
2019-02-08T14:48:57.412Z,100362.09
2019-02-08T14:51:26.692Z,100362.80
2019-02-08T14:53:55.754Z,100348.63
2019-02-08T14:56:25.410Z,100367.19
2019-02-08T14:58:54.458Z,100341.41
2019-02-08T15:01:23.808Z,100313.00
2019-02-08T15:03:53.263Z,100334.82
2019-02-08T15:06:22.585Z,100315.03
2019-02-08T15:08:51.647Z,100322.72
2019-02-08T15:11:20.730Z,100322.77
2019-02-08T15:13:49.787Z,100312.05
2019-02-08T15:16:19.437Z,100317.76
2019-02-08T15:18:48.572Z,100293.55
2019-02-08T15:21:18.299Z,100303.26
2019-02-08T15:23:47.337Z,100293.72
2019-02-08T15:26:16.463Z,100305.76
2019-02-08T15:28:45.504Z,100292.03
2019-02-08T15:31:14.544Z,100284.34
2019-02-08T15:33:44.241Z,100284.65
2019-02-08T15:36:13.659Z,100283.70
2019-02-08T15:38:43.391Z,100278.35
2019-02-08T15:41:13.011Z,100266.70
2019-02-08T15:43:44.793Z,100251.59
2019-02-08T15:46:13.961Z,100251.28
2019-02-08T15:48:45.018Z,100263.59
2019-02-08T15:51:14.048Z,100244.19
2019-02-08T15:53:45.006Z,100238.90
2019-02-08T15:56:17.859Z,100236.17
2019-02-08T15:58:46.875Z,100225.22
2019-02-08T16:01:15.978Z,100221.34
2019-02-08T16:03:45.411Z,100226.63
2019-02-08T16:06:14.440Z,100180.78
2019-02-08T16:08:46.606Z,100218.24
2019-02-08T16:11:17.433Z,100204.55
2019-02-08T16:13:47.047Z,100196.22
2019-02-08T16:16:16.524Z,100189.72
2019-02-08T16:18:45.664Z,100233.20
2019-02-08T16:21:14.691Z,100190.41
2019-02-08T16:23:43.723Z,100218.72
2019-02-08T16:26:13.240Z,100190.96
2019-02-08T16:28:42.974Z,100203.98
2019-02-08T16:31:12.368Z,100183.86
2019-02-08T16:33:41.450Z,100182.53
2019-02-08T16:36:11.085Z,100181.38
2019-02-08T16:38:40.489Z,100164.50
2019-02-08T16:41:10.535Z,100172.94
2019-02-08T16:43:39.805Z,100175.48
2019-02-08T16:46:10.086Z,100163.85
2019-02-08T16:48:40.187Z,100152.13
2019-02-08T16:51:10.404Z,100159.15
2019-02-08T16:53:39.651Z,100151.30
2019-02-08T16:56:09.280Z,100158.44
2019-02-08T16:58:40.723Z,100145.01
2019-02-08T17:01:09.779Z,100138.99
2019-02-08T17:03:39.211Z,100137.67
2019-02-08T17:06:08.255Z,100139.19
2019-02-08T17:08:37.864Z,100161.12
2019-02-08T17:11:07.638Z,100122.83
2019-02-08T17:13:36.743Z,100108.23
2019-02-08T17:16:06.831Z,100105.84
2019-02-08T17:18:35.869Z,100092.11
2019-02-08T17:21:05.651Z,100116.27
2019-02-08T17:23:35.729Z,100083.44
2019-02-08T17:26:06.329Z,100086.75
2019-02-08T17:28:35.692Z,100098.45
2019-02-08T17:31:05.049Z,100076.05
2019-02-08T17:33:35.881Z,100103.81
2019-02-08T17:36:05.998Z,100070.33
2019-02-08T17:38:36.249Z,100054.30
2019-02-08T17:41:05.883Z,100058.47
2019-02-08T17:43:38.659Z,100062.94
2019-02-08T17:46:08.226Z,100058.14
2019-02-08T17:48:38.168Z,100074.65
2019-02-08T17:51:07.877Z,100048.92
2019-02-08T17:53:38.610Z,100072.61
2019-02-08T17:56:08.213Z,100059.59
2019-02-08T17:58:37.283Z,100044.72
2019-02-08T18:01:07.345Z,100036.60
2019-02-08T18:03:36.713Z,100018.08
2019-02-08T18:06:06.437Z,100026.02
2019-02-08T18:08:36.815Z,100008.34
2019-02-08T18:11:06.119Z,100013.58
2019-02-08T18:13:36.126Z,100007.58
2019-02-08T18:16:06.127Z,99996.24
2019-02-08T18:18:35.751Z,99984.97
2019-02-08T18:21:11.739Z,99990.25
2019-02-08T18:23:42.641Z,99986.94
2019-02-08T18:26:12.263Z,99981.50
2019-02-08T18:28:42.113Z,100002.41
2019-02-08T18:31:12.478Z,99988.36
2019-02-08T18:33:42.131Z,99984.41
2019-02-08T18:36:12.021Z,99968.72
2019-02-08T18:38:41.862Z,99965.13
2019-02-08T18:41:11.814Z,99967.27
2019-02-08T18:43:42.730Z,99961.67
2019-02-08T18:46:13.602Z,99953.38
2019-02-08T18:48:46.725Z,99937.75
2019-02-08T18:51:16.698Z,99933.92
2019-02-08T18:53:46.257Z,99933.22
2019-02-08T18:56:16.149Z,99922.19
2019-02-08T18:58:51.787Z,99918.91
2019-02-08T19:01:21.368Z,99944.41
2019-02-08T19:03:53.702Z,99915.67
2019-02-08T19:06:23.816Z,99918.66
2019-02-08T19:08:53.145Z,99925.47
2019-02-08T19:11:22.745Z,99925.01
2019-02-08T19:13:52.697Z,99900.36
2019-02-08T19:16:25.704Z,99916.14
2019-02-08T19:18:55.249Z,99917.54
2019-02-08T19:21:25.837Z,99902.98
2019-02-08T19:23:55.321Z,99892.29
2019-02-08T19:26:25.731Z,99886.30
2019-02-08T19:28:55.146Z,99892.66
2019-02-08T19:31:31.347Z,99880.05
2019-02-08T19:34:01.247Z,99869.34
2019-02-08T19:36:30.743Z,99866.40
2019-02-08T19:39:00.161Z,99870.63
2019-02-08T19:41:29.799Z,99868.98
2019-02-08T19:43:59.607Z,99880.25
2019-02-08T19:46:29.733Z,99859.62
2019-02-08T19:48:59.868Z,99875.09
2019-02-08T19:51:29.980Z,99875.23
2019-02-08T19:53:59.377Z,99870.89
2019-02-08T19:56:31.181Z,99864.91
2019-02-08T19:59:00.560Z,99868.44
2019-02-08T20:01:30.658Z,99870.75
2019-02-08T20:04:00.645Z,99863.23
2019-02-08T20:06:30.255Z,99867.67
2019-02-08T20:09:00.269Z,99873.91
2019-02-08T20:11:30.387Z,99855.34
2019-02-08T20:14:00.577Z,99853.37
2019-02-08T20:16:30.067Z,99858.38
2019-02-08T20:18:59.857Z,99849.36
2019-02-08T20:21:30.155Z,99878.16
2019-02-08T20:23:59.779Z,99852.12
2019-02-08T20:26:29.960Z,99856.84
2019-02-08T20:28:59.901Z,99848.55
2019-02-08T20:31:30.049Z,99873.89
2019-02-08T20:34:00.074Z,99846.02
2019-02-08T20:36:29.640Z,99830.34
2019-02-08T20:39:01.837Z,99834.08
2019-02-08T20:41:31.814Z,99835.66
2019-02-08T20:44:23.977Z,99862.45
2019-02-08T20:46:53.018Z,99844.59
2019-02-08T20:49:22.663Z,99848.27
2019-02-08T20:51:52.299Z,99829.68
2019-02-08T20:54:28.872Z,99827.64
2019-02-08T20:56:59.251Z,99827.77
2019-02-08T20:59:29.635Z,99850.14
2019-02-08T21:01:58.854Z,99838.97
2019-02-08T21:04:31.187Z,99828.13
2019-02-08T21:07:03.292Z,99825.45
2019-02-08T21:09:33.351Z,99831.19
2019-02-08T21:12:05.881Z,99821.27
2019-02-08T21:14:35.074Z,99820.35
2019-02-08T21:17:04.793Z,99813.19
2019-02-08T21:19:34.127Z,99829.77
2019-02-08T21:22:04.595Z,99826.00
2019-02-08T21:24:34.680Z,99828.37
2019-02-08T21:27:04.325Z,99825.75
2019-02-08T21:29:33.857Z,99814.06
2019-02-08T21:32:03.609Z,99807.75
2019-02-08T21:34:33.459Z,99800.80
2019-02-08T21:37:03.096Z,99794.48
2019-02-08T21:39:32.634Z,99781.55
2019-02-08T21:42:02.165Z,99782.23
2019-02-08T21:44:31.203Z,99780.84
2019-02-08T21:47:00.954Z,99769.50
2019-02-08T21:49:30.107Z,99764.45
2019-02-08T21:51:59.679Z,99764.81
2019-02-08T21:54:29.642Z,99790.80
2019-02-08T21:56:59.126Z,99772.10
2019-02-08T21:59:28.675Z,99769.70
2019-02-08T22:01:58.121Z,99752.61
2019-02-08T22:04:27.198Z,99755.16
2019-02-08T22:06:56.759Z,99766.67
2019-02-08T22:09:26.269Z,99759.92
2019-02-08T22:11:56.483Z,99758.17
2019-02-08T22:14:25.986Z,99734.61
2019-02-08T22:16:55.275Z,99758.66
2019-02-08T22:19:24.493Z,99734.61
2019-02-08T22:21:53.884Z,99746.83
2019-02-08T22:24:23.915Z,99748.29
2019-02-08T22:26:53.387Z,99738.30
2019-02-08T22:29:22.937Z,99723.52
2019-02-08T22:31:53.147Z,99707.30
2019-02-08T22:34:22.675Z,99711.95
2019-02-08T22:36:53.854Z,99718.60
2019-02-08T22:39:23.494Z,99731.06
2019-02-08T22:41:53.725Z,99724.42
2019-02-08T22:44:23.198Z,99733.08
2019-02-08T22:46:52.755Z,99724.31
2019-02-08T22:49:22.080Z,99721.64
2019-02-08T22:51:51.636Z,99732.44
2019-02-08T22:54:21.960Z,99715.59
2019-02-08T22:56:52.410Z,99708.84
2019-02-08T22:59:23.894Z,99705.71
2019-02-08T23:01:53.218Z,99716.41
2019-02-08T23:04:22.507Z,99717.00
2019-02-08T23:06:51.585Z,99723.65
2019-02-08T23:09:22.593Z,99714.66
2019-02-08T23:11:51.654Z,99721.81
2019-02-08T23:14:20.672Z,99731.80
2019-02-08T23:16:49.720Z,99742.22
2019-02-08T23:19:18.836Z,99771.28
2019-02-08T23:21:47.924Z,99755.05
2019-02-08T23:24:17.316Z,99755.71
2019-02-08T23:26:47.286Z,99765.52
2019-02-08T23:29:16.642Z,99754.89
2019-02-08T23:31:45.948Z,99751.31
2019-02-08T23:34:14.948Z,99754.40
2019-02-08T23:36:44.185Z,99748.72
2019-02-08T23:39:14.695Z,99749.84
2019-02-08T23:41:45.788Z,99752.97
2019-02-08T23:44:15.248Z,99758.41
2019-02-08T23:46:44.289Z,99757.20
2019-02-08T23:49:14.614Z,99758.42
2019-02-08T23:51:44.509Z,99759.98
2019-02-08T23:54:14.264Z,99762.09
2019-02-08T23:56:43.315Z,99764.22
2019-02-08T23:59:13.008Z,99758.39
